sensor_id;sensor_type;location;lat;lon;timestamp;P1;durP1;ratioP1;P2;durP2;ratioP2
32697;SDS011;19087;51.062;3.754;2023-05-16T00:00:41;0.40;;;0.40;;
32697;SDS011;19087;51.062;3.754;2023-05-16T00:03:07;0.30;;;0.30;;
32697;SDS011;19087;51.062;3.754;2023-05-16T00:05:36;0.30;;;0.30;;
32697;SDS011;19087;51.062;3.754;2023-05-16T00:08:03;0.30;;;0.30;;
32697;SDS011;19087;51.062;3.754;2023-05-16T00:10:29;0.30;;;0.30;;
32697;SDS011;19087;51.062;3.754;2023-05-16T00:12:58;0.30;;;0.30;;
32697;SDS011;19087;51.062;3.754;2023-05-16T00:15:26;0.30;;;0.30;;
32697;SDS011;19087;51.062;3.754;2023-05-16T00:17:53;0.35;;;0.35;;
32697;SDS011;19087;51.062;3.754;2023-05-16T00:20:22;0.28;;;0.28;;
32697;SDS011;19087;51.062;3.754;2023-05-16T00:22:50;0.30;;;0.30;;
32697;SDS011;19087;51.062;3.754;2023-05-16T00:25:16;0.30;;;0.30;;
32697;SDS011;19087;51.062;3.754;2023-05-16T00:27:42;0.30;;;0.30;;
32697;SDS011;19087;51.062;3.754;2023-05-16T00:30:08;0.30;;;0.30;;
32697;SDS011;19087;51.062;3.754;2023-05-16T00:32:34;0.30;;;0.30;;
32697;SDS011;19087;51.062;3.754;2023-05-16T00:35:02;0.30;;;0.30;;
32697;SDS011;19087;51.062;3.754;2023-05-16T00:37:29;0.30;;;0.30;;
32697;SDS011;19087;51.062;3.754;2023-05-16T00:39:54;0.40;;;0.40;;
32697;SDS011;19087;51.062;3.754;2023-05-16T00:42:22;0.30;;;0.30;;
32697;SDS011;19087;51.062;3.754;2023-05-16T00:44:48;0.30;;;0.30;;
32697;SDS011;19087;51.062;3.754;2023-05-16T00:47:15;0.30;;;0.30;;
32697;SDS011;19087;51.062;3.754;2023-05-16T00:49:41;0.30;;;0.30;;
32697;SDS011;19087;51.062;3.754;2023-05-16T00:52:07;0.35;;;0.35;;
32697;SDS011;19087;51.062;3.754;2023-05-16T00:54:33;0.30;;;0.30;;
32697;SDS011;19087;51.062;3.754;2023-05-16T00:56:59;0.30;;;0.30;;
32697;SDS011;19087;51.062;3.754;2023-05-16T00:59:25;0.30;;;0.30;;
32697;SDS011;19087;51.062;3.754;2023-05-16T01:01:52;0.30;;;0.30;;
32697;SDS011;19087;51.062;3.754;2023-05-16T01:04:19;0.20;;;0.20;;
32697;SDS011;19087;51.062;3.754;2023-05-16T01:06:45;0.30;;;0.30;;
32697;SDS011;19087;51.062;3.754;2023-05-16T01:09:11;0.20;;;0.20;;
32697;SDS011;19087;51.062;3.754;2023-05-16T01:14:50;0.30;;;0.30;;
32697;SDS011;19087;51.062;3.754;2023-05-16T01:28:03;0.30;;;0.30;;
32697;SDS011;19087;51.062;3.754;2023-05-16T01:30:36;0.20;;;0.20;;
32697;SDS011;19087;51.062;3.754;2023-05-16T01:33:04;0.30;;;0.30;;
32697;SDS011;19087;51.062;3.754;2023-05-16T01:35:30;0.30;;;0.30;;
32697;SDS011;19087;51.062;3.754;2023-05-16T01:38:11;0.40;;;0.40;;
32697;SDS011;19087;51.062;3.754;2023-05-16T01:43:55;0.30;;;0.30;;
32697;SDS011;19087;51.062;3.754;2023-05-16T01:46:26;0.40;;;0.40;;
32697;SDS011;19087;51.062;3.754;2023-05-16T01:51:21;0.30;;;0.30;;
32697;SDS011;19087;51.062;3.754;2023-05-16T01:53:52;0.30;;;0.30;;
32697;SDS011;19087;51.062;3.754;2023-05-16T01:56:25;0.30;;;0.30;;
32697;SDS011;19087;51.062;3.754;2023-05-16T01:58:54;0.30;;;0.30;;
32697;SDS011;19087;51.062;3.754;2023-05-16T02:01:23;0.30;;;0.30;;
32697;SDS011;19087;51.062;3.754;2023-05-16T02:03:49;0.30;;;0.30;;
32697;SDS011;19087;51.062;3.754;2023-05-16T02:06:18;0.30;;;0.30;;
32697;SDS011;19087;51.062;3.754;2023-05-16T02:08:44;0.30;;;0.30;;
32697;SDS011;19087;51.062;3.754;2023-05-16T02:11:10;0.30;;;0.30;;
32697;SDS011;19087;51.062;3.754;2023-05-16T02:13:36;0.30;;;0.30;;
32697;SDS011;19087;51.062;3.754;2023-05-16T02:16:02;0.20;;;0.20;;
32697;SDS011;19087;51.062;3.754;2023-05-16T02:18:28;0.20;;;0.20;;
32697;SDS011;19087;51.062;3.754;2023-05-16T02:20:55;0.30;;;0.30;;
32697;SDS011;19087;51.062;3.754;2023-05-16T02:23:20;0.30;;;0.30;;
32697;SDS011;19087;51.062;3.754;2023-05-16T02:25:48;0.20;;;0.20;;
32697;SDS011;19087;51.062;3.754;2023-05-16T02:28:15;0.30;;;0.30;;
32697;SDS011;19087;51.062;3.754;2023-05-16T02:30:43;0.30;;;0.30;;
32697;SDS011;19087;51.062;3.754;2023-05-16T02:33:20;0.30;;;0.30;;
32697;SDS011;19087;51.062;3.754;2023-05-16T02:36:05;0.20;;;0.20;;
32697;SDS011;19087;51.062;3.754;2023-05-16T02:38:31;0.30;;;0.30;;
32697;SDS011;19087;51.062;3.754;2023-05-16T02:40:57;0.30;;;0.30;;
32697;SDS011;19087;51.062;3.754;2023-05-16T02:43:23;0.20;;;0.20;;
32697;SDS011;19087;51.062;3.754;2023-05-16T02:45:50;0.30;;;0.30;;
32697;SDS011;19087;51.062;3.754;2023-05-16T02:48:18;0.28;;;0.28;;
32697;SDS011;19087;51.062;3.754;2023-05-16T02:50:45;0.40;;;0.40;;
32697;SDS011;19087;51.062;3.754;2023-05-16T02:53:11;0.20;;;0.20;;
32697;SDS011;19087;51.062;3.754;2023-05-16T02:55:37;0.30;;;0.30;;
32697;SDS011;19087;51.062;3.754;2023-05-16T02:58:03;0.20;;;0.20;;
32697;SDS011;19087;51.062;3.754;2023-05-16T03:00:29;0.30;;;0.30;;
32697;SDS011;19087;51.062;3.754;2023-05-16T03:02:55;0.25;;;0.25;;
32697;SDS011;19087;51.062;3.754;2023-05-16T03:05:22;0.30;;;0.30;;
32697;SDS011;19087;51.062;3.754;2023-05-16T03:07:50;0.30;;;0.30;;
32697;SDS011;19087;51.062;3.754;2023-05-16T03:10:15;0.20;;;0.20;;
32697;SDS011;19087;51.062;3.754;2023-05-16T03:12:42;0.30;;;0.30;;
32697;SDS011;19087;51.062;3.754;2023-05-16T03:15:08;0.32;;;0.32;;
32697;SDS011;19087;51.062;3.754;2023-05-16T03:17:34;0.30;;;0.30;;
32697;SDS011;19087;51.062;3.754;2023-05-16T03:20:00;0.20;;;0.20;;
32697;SDS011;19087;51.062;3.754;2023-05-16T03:22:27;0.20;;;0.20;;
32697;SDS011;19087;51.062;3.754;2023-05-16T03:24:53;0.30;;;0.30;;
32697;SDS011;19087;51.062;3.754;2023-05-16T03:27:19;0.20;;;0.20;;
32697;SDS011;19087;51.062;3.754;2023-05-16T03:29:45;0.38;;;0.38;;
32697;SDS011;19087;51.062;3.754;2023-05-16T03:32:10;0.30;;;0.30;;
32697;SDS011;19087;51.062;3.754;2023-05-16T03:34:36;0.30;;;0.30;;
32697;SDS011;19087;51.062;3.754;2023-05-16T03:37:02;0.30;;;0.30;;
32697;SDS011;19087;51.062;3.754;2023-05-16T03:39:28;0.20;;;0.20;;
32697;SDS011;19087;51.062;3.754;2023-05-16T03:41:54;0.30;;;0.30;;
32697;SDS011;19087;51.062;3.754;2023-05-16T03:44:23;0.20;;;0.20;;
32697;SDS011;19087;51.062;3.754;2023-05-16T03:46:56;0.30;;;0.30;;
32697;SDS011;19087;51.062;3.754;2023-05-16T03:49:25;0.30;;;0.30;;
32697;SDS011;19087;51.062;3.754;2023-05-16T03:51:54;0.22;;;0.22;;
32697;SDS011;19087;51.062;3.754;2023-05-16T03:54:20;0.28;;;0.28;;
32697;SDS011;19087;51.062;3.754;2023-05-16T03:56:47;0.30;;;0.30;;
32697;SDS011;19087;51.062;3.754;2023-05-16T03:59:13;0.28;;;0.28;;
32697;SDS011;19087;51.062;3.754;2023-05-16T04:01:41;0.30;;;0.30;;
32697;SDS011;19087;51.062;3.754;2023-05-16T04:04:06;0.30;;;0.30;;
32697;SDS011;19087;51.062;3.754;2023-05-16T04:06:33;0.30;;;0.30;;
32697;SDS011;19087;51.062;3.754;2023-05-16T04:08:59;0.20;;;0.20;;
32697;SDS011;19087;51.062;3.754;2023-05-16T04:11:25;0.30;;;0.30;;
32697;SDS011;19087;51.062;3.754;2023-05-16T04:13:51;0.30;;;0.30;;
32697;SDS011;19087;51.062;3.754;2023-05-16T04:16:18;0.30;;;0.30;;
32697;SDS011;19087;51.062;3.754;2023-05-16T04:18:44;0.30;;;0.30;;
32697;SDS011;19087;51.062;3.754;2023-05-16T04:21:12;0.30;;;0.30;;
32697;SDS011;19087;51.062;3.754;2023-05-16T04:23:42;0.20;;;0.20;;
32697;SDS011;19087;51.062;3.754;2023-05-16T04:26:08;0.30;;;0.30;;
32697;SDS011;19087;51.062;3.754;2023-05-16T04:28:34;0.30;;;0.30;;
32697;SDS011;19087;51.062;3.754;2023-05-16T04:31:00;0.20;;;0.20;;
32697;SDS011;19087;51.062;3.754;2023-05-16T04:33:26;0.30;;;0.30;;
32697;SDS011;19087;51.062;3.754;2023-05-16T04:35:51;0.20;;;0.20;;
32697;SDS011;19087;51.062;3.754;2023-05-16T04:38:19;0.28;;;0.28;;
32697;SDS011;19087;51.062;3.754;2023-05-16T04:40:46;0.20;;;0.20;;
32697;SDS011;19087;51.062;3.754;2023-05-16T04:43:14;0.22;;;0.22;;
32697;SDS011;19087;51.062;3.754;2023-05-16T04:45:40;0.30;;;0.30;;
32697;SDS011;19087;51.062;3.754;2023-05-16T04:48:08;0.38;;;0.38;;
32697;SDS011;19087;51.062;3.754;2023-05-16T04:50:34;0.30;;;0.30;;
32697;SDS011;19087;51.062;3.754;2023-05-16T04:53:00;0.30;;;0.30;;
32697;SDS011;19087;51.062;3.754;2023-05-16T04:55:26;0.40;;;0.40;;
32697;SDS011;19087;51.062;3.754;2023-05-16T04:57:52;0.30;;;0.30;;
32697;SDS011;19087;51.062;3.754;2023-05-16T05:00:19;0.38;;;0.38;;
32697;SDS011;19087;51.062;3.754;2023-05-16T05:02:45;0.30;;;0.30;;
32697;SDS011;19087;51.062;3.754;2023-05-16T05:05:11;0.30;;;0.30;;
32697;SDS011;19087;51.062;3.754;2023-05-16T05:07:39;0.30;;;0.30;;
32697;SDS011;19087;51.062;3.754;2023-05-16T05:10:06;0.20;;;0.20;;
32697;SDS011;19087;51.062;3.754;2023-05-16T05:12:33;0.30;;;0.30;;
32697;SDS011;19087;51.062;3.754;2023-05-16T05:14:59;0.20;;;0.20;;
32697;SDS011;19087;51.062;3.754;2023-05-16T05:17:25;0.30;;;0.30;;
32697;SDS011;19087;51.062;3.754;2023-05-16T05:19:51;0.20;;;0.20;;
32697;SDS011;19087;51.062;3.754;2023-05-16T05:22:17;0.30;;;0.30;;
32697;SDS011;19087;51.062;3.754;2023-05-16T05:24:44;0.20;;;0.20;;
32697;SDS011;19087;51.062;3.754;2023-05-16T05:27:11;0.30;;;0.30;;
32697;SDS011;19087;51.062;3.754;2023-05-16T05:29:37;0.30;;;0.30;;
32697;SDS011;19087;51.062;3.754;2023-05-16T05:32:05;0.25;;;0.25;;
32697;SDS011;19087;51.062;3.754;2023-05-16T05:34:32;0.25;;;0.25;;
32697;SDS011;19087;51.062;3.754;2023-05-16T05:36:58;0.30;;;0.30;;
32697;SDS011;19087;51.062;3.754;2023-05-16T05:39:24;0.38;;;0.38;;
32697;SDS011;19087;51.062;3.754;2023-05-16T05:41:50;0.20;;;0.20;;
32697;SDS011;19087;51.062;3.754;2023-05-16T05:44:16;0.10;;;0.10;;
32697;SDS011;19087;51.062;3.754;2023-05-16T05:46:42;0.30;;;0.30;;
32697;SDS011;19087;51.062;3.754;2023-05-16T05:49:09;0.20;;;0.20;;
32697;SDS011;19087;51.062;3.754;2023-05-16T05:51:34;0.20;;;0.20;;
32697;SDS011;19087;51.062;3.754;2023-05-16T05:54:01;0.25;;;0.25;;
32697;SDS011;19087;51.062;3.754;2023-05-16T05:56:27;0.30;;;0.30;;
32697;SDS011;19087;51.062;3.754;2023-05-16T05:58:52;0.20;;;0.20;;
32697;SDS011;19087;51.062;3.754;2023-05-16T06:01:18;0.30;;;0.30;;
32697;SDS011;19087;51.062;3.754;2023-05-16T06:03:48;0.30;;;0.30;;
32697;SDS011;19087;51.062;3.754;2023-05-16T06:06:14;0.20;;;0.20;;
32697;SDS011;19087;51.062;3.754;2023-05-16T06:08:41;0.30;;;0.30;;
32697;SDS011;19087;51.062;3.754;2023-05-16T06:11:08;0.20;;;0.20;;
32697;SDS011;19087;51.062;3.754;2023-05-16T06:13:34;0.20;;;0.20;;
32697;SDS011;19087;51.062;3.754;2023-05-16T06:16:00;0.20;;;0.20;;
32697;SDS011;19087;51.062;3.754;2023-05-16T06:18:25;0.20;;;0.20;;
32697;SDS011;19087;51.062;3.754;2023-05-16T06:20:51;0.10;;;0.10;;
32697;SDS011;19087;51.062;3.754;2023-05-16T06:23:18;0.20;;;0.20;;
32697;SDS011;19087;51.062;3.754;2023-05-16T06:25:44;0.20;;;0.20;;
32697;SDS011;19087;51.062;3.754;2023-05-16T06:28:11;0.30;;;0.30;;
32697;SDS011;19087;51.062;3.754;2023-05-16T06:30:38;0.20;;;0.20;;
32697;SDS011;19087;51.062;3.754;2023-05-16T06:33:05;0.20;;;0.20;;
32697;SDS011;19087;51.062;3.754;2023-05-16T06:35:33;0.10;;;0.10;;
32697;SDS011;19087;51.062;3.754;2023-05-16T06:37:59;0.20;;;0.20;;
32697;SDS011;19087;51.062;3.754;2023-05-16T06:40:26;0.20;;;0.20;;
32697;SDS011;19087;51.062;3.754;2023-05-16T06:42:52;0.20;;;0.20;;
32697;SDS011;19087;51.062;3.754;2023-05-16T06:45:19;0.20;;;0.20;;
32697;SDS011;19087;51.062;3.754;2023-05-16T06:47:44;0.20;;;0.20;;
32697;SDS011;19087;51.062;3.754;2023-05-16T06:50:10;0.10;;;0.10;;
32697;SDS011;19087;51.062;3.754;2023-05-16T06:52:36;0.15;;;0.15;;
32697;SDS011;19087;51.062;3.754;2023-05-16T06:55:02;0.10;;;0.10;;
32697;SDS011;19087;51.062;3.754;2023-05-16T06:57:28;0.15;;;0.15;;
32697;SDS011;19087;51.062;3.754;2023-05-16T06:59:54;0.20;;;0.20;;
32697;SDS011;19087;51.062;3.754;2023-05-16T07:02:20;0.13;;;0.13;;
32697;SDS011;19087;51.062;3.754;2023-05-16T07:04:46;0.10;;;0.10;;
32697;SDS011;19087;51.062;3.754;2023-05-16T07:07:12;0.10;;;0.10;;
32697;SDS011;19087;51.062;3.754;2023-05-16T07:09:39;0.10;;;0.10;;
32697;SDS011;19087;51.062;3.754;2023-05-16T07:12:05;0.10;;;0.10;;
32697;SDS011;19087;51.062;3.754;2023-05-16T07:14:31;0.20;;;0.20;;
32697;SDS011;19087;51.062;3.754;2023-05-16T07:16:56;0.10;;;0.10;;
32697;SDS011;19087;51.062;3.754;2023-05-16T07:19:22;0.10;;;0.10;;
32697;SDS011;19087;51.062;3.754;2023-05-16T07:21:48;0.10;;;0.10;;
32697;SDS011;19087;51.062;3.754;2023-05-16T07:24:14;0.10;;;0.10;;
32697;SDS011;19087;51.062;3.754;2023-05-16T07:26:39;0.15;;;0.15;;
32697;SDS011;19087;51.062;3.754;2023-05-16T07:29:09;0.10;;;0.10;;
32697;SDS011;19087;51.062;3.754;2023-05-16T07:31:35;0.10;;;0.10;;
32697;SDS011;19087;51.062;3.754;2023-05-16T07:34:01;0.10;;;0.10;;
32697;SDS011;19087;51.062;3.754;2023-05-16T07:36:27;0.10;;;0.10;;
32697;SDS011;19087;51.062;3.754;2023-05-16T07:38:53;0.10;;;0.10;;
32697;SDS011;19087;51.062;3.754;2023-05-16T07:41:19;0.10;;;0.10;;
32697;SDS011;19087;51.062;3.754;2023-05-16T07:43:46;0.10;;;0.10;;
32697;SDS011;19087;51.062;3.754;2023-05-16T07:46:13;0.00;;;0.00;;
32697;SDS011;19087;51.062;3.754;2023-05-16T07:48:39;0.10;;;0.10;;
32697;SDS011;19087;51.062;3.754;2023-05-16T07:51:06;0.10;;;0.10;;
32697;SDS011;19087;51.062;3.754;2023-05-16T07:53:31;0.10;;;0.10;;
32697;SDS011;19087;51.062;3.754;2023-05-16T07:55:57;0.10;;;0.10;;
32697;SDS011;19087;51.062;3.754;2023-05-16T07:58:23;0.10;;;0.10;;
32697;SDS011;19087;51.062;3.754;2023-05-16T08:00:49;0.10;;;0.10;;
32697;SDS011;19087;51.062;3.754;2023-05-16T08:03:15;0.05;;;0.05;;
32697;SDS011;19087;51.062;3.754;2023-05-16T08:05:40;0.10;;;0.10;;
32697;SDS011;19087;51.062;3.754;2023-05-16T08:08:07;0.10;;;0.10;;
32697;SDS011;19087;51.062;3.754;2023-05-16T08:10:33;0.10;;;0.10;;
32697;SDS011;19087;51.062;3.754;2023-05-16T08:12:58;0.00;;;0.00;;
32697;SDS011;19087;51.062;3.754;2023-05-16T08:15:26;0.10;;;0.10;;
32697;SDS011;19087;51.062;3.754;2023-05-16T08:17:53;0.00;;;0.00;;
32697;SDS011;19087;51.062;3.754;2023-05-16T08:20:21;0.00;;;0.00;;
32697;SDS011;19087;51.062;3.754;2023-05-16T08:22:48;0.00;;;0.00;;
32697;SDS011;19087;51.062;3.754;2023-05-16T08:25:14;0.00;;;0.00;;
32697;SDS011;19087;51.062;3.754;2023-05-16T08:27:39;0.10;;;0.10;;
32697;SDS011;19087;51.062;3.754;2023-05-16T08:30:06;0.00;;;0.00;;
32697;SDS011;19087;51.062;3.754;2023-05-16T08:32:36;0.00;;;0.00;;
32697;SDS011;19087;51.062;3.754;2023-05-16T08:35:02;0.00;;;0.00;;
32697;SDS011;19087;51.062;3.754;2023-05-16T08:37:28;0.00;;;0.00;;
32697;SDS011;19087;51.062;3.754;2023-05-16T08:39:53;0.10;;;0.10;;
32697;SDS011;19087;51.062;3.754;2023-05-16T08:42:19;0.10;;;0.10;;
32697;SDS011;19087;51.062;3.754;2023-05-16T08:44:45;0.10;;;0.10;;
32697;SDS011;19087;51.062;3.754;2023-05-16T08:47:19;0.10;;;0.10;;
32697;SDS011;19087;51.062;3.754;2023-05-16T08:49:50;0.10;;;0.10;;
32697;SDS011;19087;51.062;3.754;2023-05-16T08:52:19;0.10;;;0.10;;
32697;SDS011;19087;51.062;3.754;2023-05-16T08:54:50;0.10;;;0.10;;
32697;SDS011;19087;51.062;3.754;2023-05-16T08:57:16;0.10;;;0.10;;
32697;SDS011;19087;51.062;3.754;2023-05-16T08:59:44;0.10;;;0.10;;
32697;SDS011;19087;51.062;3.754;2023-05-16T09:02:10;0.10;;;0.10;;
32697;SDS011;19087;51.062;3.754;2023-05-16T09:04:36;0.20;;;0.20;;
32697;SDS011;19087;51.062;3.754;2023-05-16T09:07:03;0.10;;;0.10;;
32697;SDS011;19087;51.062;3.754;2023-05-16T09:09:29;0.20;;;0.20;;
32697;SDS011;19087;51.062;3.754;2023-05-16T09:11:55;0.20;;;0.20;;
32697;SDS011;19087;51.062;3.754;2023-05-16T09:14:21;0.20;;;0.20;;
32697;SDS011;19087;51.062;3.754;2023-05-16T09:17:01;0.20;;;0.20;;
32697;SDS011;19087;51.062;3.754;2023-05-16T09:19:47;0.20;;;0.20;;
32697;SDS011;19087;51.062;3.754;2023-05-16T09:22:16;0.20;;;0.20;;
32697;SDS011;19087;51.062;3.754;2023-05-16T09:24:45;0.20;;;0.20;;
32697;SDS011;19087;51.062;3.754;2023-05-16T09:27:13;0.22;;;0.22;;
32697;SDS011;19087;51.062;3.754;2023-05-16T09:29:41;0.20;;;0.20;;
32697;SDS011;19087;51.062;3.754;2023-05-16T09:32:14;0.20;;;0.20;;
32697;SDS011;19087;51.062;3.754;2023-05-16T09:34:44;0.20;;;0.20;;
32697;SDS011;19087;51.062;3.754;2023-05-16T09:37:16;0.20;;;0.20;;
32697;SDS011;19087;51.062;3.754;2023-05-16T09:39:46;0.13;;;0.13;;
32697;SDS011;19087;51.062;3.754;2023-05-16T09:42:13;0.20;;;0.20;;
32697;SDS011;19087;51.062;3.754;2023-05-16T09:44:50;0.20;;;0.20;;
32697;SDS011;19087;51.062;3.754;2023-05-16T09:47:19;0.30;;;0.30;;
32697;SDS011;19087;51.062;3.754;2023-05-16T09:49:46;0.20;;;0.20;;
32697;SDS011;19087;51.062;3.754;2023-05-16T09:52:15;0.22;;;0.22;;
32697;SDS011;19087;51.062;3.754;2023-05-16T09:54:41;0.20;;;0.20;;
32697;SDS011;19087;51.062;3.754;2023-05-16T09:57:07;0.30;;;0.30;;
32697;SDS011;19087;51.062;3.754;2023-05-16T09:59:37;0.20;;;0.20;;
32697;SDS011;19087;51.062;3.754;2023-05-16T10:02:06;0.20;;;0.20;;
32697;SDS011;19087;51.062;3.754;2023-05-16T10:04:35;0.30;;;0.30;;
32697;SDS011;19087;51.062;3.754;2023-05-16T10:07:02;0.20;;;0.20;;
32697;SDS011;19087;51.062;3.754;2023-05-16T10:09:32;0.30;;;0.30;;
32697;SDS011;19087;51.062;3.754;2023-05-16T10:12:01;0.20;;;0.20;;
32697;SDS011;19087;51.062;3.754;2023-05-16T10:14:34;0.20;;;0.20;;
32697;SDS011;19087;51.062;3.754;2023-05-16T10:17:05;0.25;;;0.25;;
32697;SDS011;19087;51.062;3.754;2023-05-16T10:19:38;0.30;;;0.30;;
32697;SDS011;19087;51.062;3.754;2023-05-16T10:22:05;0.30;;;0.30;;
32697;SDS011;19087;51.062;3.754;2023-05-16T10:25:19;0.30;;;0.30;;
32697;SDS011;19087;51.062;3.754;2023-05-16T10:27:20;0.20;;;0.20;;
32697;SDS011;19087;51.062;3.754;2023-05-16T10:29:46;0.20;;;0.20;;
32697;SDS011;19087;51.062;3.754;2023-05-16T10:32:14;0.20;;;0.20;;
32697;SDS011;19087;51.062;3.754;2023-05-16T10:34:40;0.25;;;0.25;;
32697;SDS011;19087;51.062;3.754;2023-05-16T10:37:07;0.30;;;0.30;;
32697;SDS011;19087;51.062;3.754;2023-05-16T10:39:34;0.22;;;0.22;;
32697;SDS011;19087;51.062;3.754;2023-05-16T10:42:02;0.20;;;0.20;;
32697;SDS011;19087;51.062;3.754;2023-05-16T10:44:30;0.20;;;0.20;;
32697;SDS011;19087;51.062;3.754;2023-05-16T10:46:58;0.30;;;0.30;;
32697;SDS011;19087;51.062;3.754;2023-05-16T10:49:25;0.20;;;0.20;;
32697;SDS011;19087;51.062;3.754;2023-05-16T10:52:25;0.22;;;0.22;;
32697;SDS011;19087;51.062;3.754;2023-05-16T10:54:48;0.20;;;0.20;;
32697;SDS011;19087;51.062;3.754;2023-05-16T10:57:17;0.20;;;0.20;;
32697;SDS011;19087;51.062;3.754;2023-05-16T10:59:47;0.20;;;0.20;;
32697;SDS011;19087;51.062;3.754;2023-05-16T11:02:21;0.22;;;0.22;;
32697;SDS011;19087;51.062;3.754;2023-05-16T11:04:47;0.20;;;0.20;;
32697;SDS011;19087;51.062;3.754;2023-05-16T11:07:17;0.30;;;0.30;;
32697;SDS011;19087;51.062;3.754;2023-05-16T11:09:44;0.20;;;0.20;;
32697;SDS011;19087;51.062;3.754;2023-05-16T11:12:10;0.20;;;0.20;;
32697;SDS011;19087;51.062;3.754;2023-05-16T11:14:39;0.20;;;0.20;;
32697;SDS011;19087;51.062;3.754;2023-05-16T11:17:12;0.20;;;0.20;;
32697;SDS011;19087;51.062;3.754;2023-05-16T11:19:45;0.20;;;0.20;;
32697;SDS011;19087;51.062;3.754;2023-05-16T11:22:21;0.30;;;0.30;;
32697;SDS011;19087;51.062;3.754;2023-05-16T11:24:53;0.30;;;0.30;;
32697;SDS011;19087;51.062;3.754;2023-05-16T11:27:21;0.20;;;0.20;;
32697;SDS011;19087;51.062;3.754;2023-05-16T11:29:49;0.20;;;0.20;;
32697;SDS011;19087;51.062;3.754;2023-05-16T11:32:20;0.25;;;0.25;;
32697;SDS011;19087;51.062;3.754;2023-05-16T11:34:47;0.20;;;0.20;;
32697;SDS011;19087;51.062;3.754;2023-05-16T11:37:15;0.20;;;0.20;;
32697;SDS011;19087;51.062;3.754;2023-05-16T11:39:42;0.20;;;0.20;;
32697;SDS011;19087;51.062;3.754;2023-05-16T11:42:08;0.30;;;0.30;;
32697;SDS011;19087;51.062;3.754;2023-05-16T11:44:35;0.28;;;0.28;;
32697;SDS011;19087;51.062;3.754;2023-05-16T11:47:01;0.20;;;0.20;;
32697;SDS011;19087;51.062;3.754;2023-05-16T11:49:29;0.20;;;0.20;;
32697;SDS011;19087;51.062;3.754;2023-05-16T11:51:55;0.20;;;0.20;;
32697;SDS011;19087;51.062;3.754;2023-05-16T11:54:21;0.20;;;0.20;;
32697;SDS011;19087;51.062;3.754;2023-05-16T11:56:48;0.20;;;0.20;;
32697;SDS011;19087;51.062;3.754;2023-05-16T11:59:18;0.20;;;0.20;;
32697;SDS011;19087;51.062;3.754;2023-05-16T12:01:45;0.28;;;0.28;;
32697;SDS011;19087;51.062;3.754;2023-05-16T12:04:14;0.20;;;0.20;;
32697;SDS011;19087;51.062;3.754;2023-05-16T12:06:42;0.20;;;0.20;;
32697;SDS011;19087;51.062;3.754;2023-05-16T12:09:12;0.20;;;0.20;;
32697;SDS011;19087;51.062;3.754;2023-05-16T12:11:41;0.20;;;0.20;;
32697;SDS011;19087;51.062;3.754;2023-05-16T12:14:10;0.20;;;0.20;;
32697;SDS011;19087;51.062;3.754;2023-05-16T12:16:37;0.20;;;0.20;;
32697;SDS011;19087;51.062;3.754;2023-05-16T12:19:09;0.30;;;0.30;;
32697;SDS011;19087;51.062;3.754;2023-05-16T12:21:36;0.22;;;0.22;;
32697;SDS011;19087;51.062;3.754;2023-05-16T12:24:03;0.20;;;0.20;;
32697;SDS011;19087;51.062;3.754;2023-05-16T12:26:30;0.25;;;0.25;;
32697;SDS011;19087;51.062;3.754;2023-05-16T12:29:00;0.20;;;0.20;;
32697;SDS011;19087;51.062;3.754;2023-05-16T12:31:29;0.17;;;0.17;;
32697;SDS011;19087;51.062;3.754;2023-05-16T12:33:56;0.20;;;0.20;;
32697;SDS011;19087;51.062;3.754;2023-05-16T12:36:23;0.20;;;0.20;;
32697;SDS011;19087;51.062;3.754;2023-05-16T12:38:50;0.20;;;0.20;;
32697;SDS011;19087;51.062;3.754;2023-05-16T12:41:17;0.20;;;0.20;;
32697;SDS011;19087;51.062;3.754;2023-05-16T12:43:44;0.20;;;0.20;;
32697;SDS011;19087;51.062;3.754;2023-05-16T12:46:10;0.20;;;0.20;;
32697;SDS011;19087;51.062;3.754;2023-05-16T12:48:38;0.20;;;0.20;;
32697;SDS011;19087;51.062;3.754;2023-05-16T12:51:12;0.20;;;0.20;;
32697;SDS011;19087;51.062;3.754;2023-05-16T12:53:44;0.20;;;0.20;;
32697;SDS011;19087;51.062;3.754;2023-05-16T12:56:14;0.20;;;0.20;;
32697;SDS011;19087;51.062;3.754;2023-05-16T12:58:43;0.20;;;0.20;;
32697;SDS011;19087;51.062;3.754;2023-05-16T13:01:09;0.30;;;0.30;;
32697;SDS011;19087;51.062;3.754;2023-05-16T13:03:35;0.20;;;0.20;;
32697;SDS011;19087;51.062;3.754;2023-05-16T13:06:01;0.20;;;0.20;;
32697;SDS011;19087;51.062;3.754;2023-05-16T13:08:28;0.20;;;0.20;;
32697;SDS011;19087;51.062;3.754;2023-05-16T13:10:54;0.10;;;0.10;;
32697;SDS011;19087;51.062;3.754;2023-05-16T13:13:20;0.20;;;0.20;;
32697;SDS011;19087;51.062;3.754;2023-05-16T13:15:47;0.20;;;0.20;;
32697;SDS011;19087;51.062;3.754;2023-05-16T13:18:13;0.20;;;0.20;;
32697;SDS011;19087;51.062;3.754;2023-05-16T13:20:39;0.20;;;0.20;;
32697;SDS011;19087;51.062;3.754;2023-05-16T13:23:06;0.20;;;0.20;;
32697;SDS011;19087;51.062;3.754;2023-05-16T13:25:33;0.20;;;0.20;;
32697;SDS011;19087;51.062;3.754;2023-05-16T13:27:59;0.10;;;0.10;;
32697;SDS011;19087;51.062;3.754;2023-05-16T13:30:26;0.20;;;0.20;;
32697;SDS011;19087;51.062;3.754;2023-05-16T13:32:53;0.20;;;0.20;;
32697;SDS011;19087;51.062;3.754;2023-05-16T13:35:19;0.20;;;0.20;;
32697;SDS011;19087;51.062;3.754;2023-05-16T13:37:45;0.20;;;0.20;;
32697;SDS011;19087;51.062;3.754;2023-05-16T13:40:11;0.22;;;0.22;;
32697;SDS011;19087;51.062;3.754;2023-05-16T13:42:37;0.10;;;0.10;;
32697;SDS011;19087;51.062;3.754;2023-05-16T13:45:03;0.20;;;0.20;;
32697;SDS011;19087;51.062;3.754;2023-05-16T13:47:30;0.20;;;0.20;;
32697;SDS011;19087;51.062;3.754;2023-05-16T13:50:00;0.20;;;0.20;;
32697;SDS011;19087;51.062;3.754;2023-05-16T13:52:33;0.10;;;0.10;;
32697;SDS011;19087;51.062;3.754;2023-05-16T13:55:02;0.20;;;0.20;;
32697;SDS011;19087;51.062;3.754;2023-05-16T13:57:28;0.20;;;0.20;;
32697;SDS011;19087;51.062;3.754;2023-05-16T13:59:54;0.20;;;0.20;;
32697;SDS011;19087;51.062;3.754;2023-05-16T14:02:21;0.20;;;0.20;;
32697;SDS011;19087;51.062;3.754;2023-05-16T14:04:47;0.20;;;0.20;;
32697;SDS011;19087;51.062;3.754;2023-05-16T14:07:13;0.20;;;0.20;;
32697;SDS011;19087;51.062;3.754;2023-05-16T14:09:39;0.20;;;0.20;;
32697;SDS011;19087;51.062;3.754;2023-05-16T14:12:05;0.20;;;0.20;;
32697;SDS011;19087;51.062;3.754;2023-05-16T14:14:34;0.20;;;0.20;;
32697;SDS011;19087;51.062;3.754;2023-05-16T14:17:02;0.20;;;0.20;;
32697;SDS011;19087;51.062;3.754;2023-05-16T14:19:32;0.25;;;0.25;;
32697;SDS011;19087;51.062;3.754;2023-05-16T14:21:58;0.20;;;0.20;;
32697;SDS011;19087;51.062;3.754;2023-05-16T14:24:24;0.20;;;0.20;;
32697;SDS011;19087;51.062;3.754;2023-05-16T14:26:50;0.20;;;0.20;;
32697;SDS011;19087;51.062;3.754;2023-05-16T14:29:19;0.20;;;0.20;;
32697;SDS011;19087;51.062;3.754;2023-05-16T14:31:46;0.20;;;0.20;;
32697;SDS011;19087;51.062;3.754;2023-05-16T14:34:12;0.20;;;0.20;;
32697;SDS011;19087;51.062;3.754;2023-05-16T14:36:41;0.20;;;0.20;;
32697;SDS011;19087;51.062;3.754;2023-05-16T14:39:07;0.30;;;0.30;;
32697;SDS011;19087;51.062;3.754;2023-05-16T14:41:34;0.20;;;0.20;;
32697;SDS011;19087;51.062;3.754;2023-05-16T14:44:00;0.20;;;0.20;;
32697;SDS011;19087;51.062;3.754;2023-05-16T14:46:26;0.20;;;0.20;;
32697;SDS011;19087;51.062;3.754;2023-05-16T14:48:53;0.20;;;0.20;;
32697;SDS011;19087;51.062;3.754;2023-05-16T14:51:19;0.20;;;0.20;;
32697;SDS011;19087;51.062;3.754;2023-05-16T14:53:46;0.22;;;0.22;;
32697;SDS011;19087;51.062;3.754;2023-05-16T14:56:11;0.20;;;0.20;;
32697;SDS011;19087;51.062;3.754;2023-05-16T14:58:37;0.10;;;0.10;;
32697;SDS011;19087;51.062;3.754;2023-05-16T15:01:03;0.30;;;0.30;;
32697;SDS011;19087;51.062;3.754;2023-05-16T15:03:29;0.20;;;0.20;;
32697;SDS011;19087;51.062;3.754;2023-05-16T15:05:57;0.20;;;0.20;;
32697;SDS011;19087;51.062;3.754;2023-05-16T15:08:23;0.30;;;0.30;;